createdAt,value
2022-12-28T00:01:33.578Z,1.40
2022-12-28T00:04:02.453Z,1.00
2022-12-28T00:06:29.094Z,1.40
2022-12-28T00:08:57.024Z,1.23
2022-12-28T00:11:28.472Z,0.80
2022-12-28T00:13:59.599Z,0.60
2022-12-28T00:16:31.613Z,0.47
2022-12-28T00:19:00.546Z,1.00
2022-12-28T00:21:27.818Z,0.73
2022-12-28T00:23:58.233Z,0.70
2022-12-28T00:26:30.188Z,1.63
2022-12-28T00:29:03.720Z,0.70
2022-12-28T00:31:32.064Z,0.60
2022-12-28T00:33:58.785Z,0.80
2022-12-28T00:37:09.947Z,0.70
2022-12-28T00:39:12.258Z,0.80
2022-12-28T00:41:39.034Z,1.30
2022-12-28T00:44:05.690Z,1.17
2022-12-28T00:46:32.521Z,0.90
2022-12-28T00:48:59.225Z,0.50
2022-12-28T00:51:26.007Z,1.07
2022-12-28T00:53:52.818Z,0.90
2022-12-28T00:56:20.992Z,0.70
2022-12-28T00:58:47.739Z,1.00
2022-12-28T01:01:20.561Z,0.80
2022-12-28T01:03:48.019Z,0.80
2022-12-28T01:06:17.118Z,0.77
2022-12-28T01:08:44.400Z,0.80
2022-12-28T01:11:18.067Z,0.87
2022-12-28T01:13:44.875Z,0.90
2022-12-28T01:16:22.537Z,0.57
2022-12-28T01:18:52.139Z,0.93
2022-12-28T01:21:22.846Z,0.57
2022-12-28T01:23:49.850Z,0.67
2022-12-28T01:26:16.714Z,0.67
2022-12-28T01:28:43.641Z,1.37
2022-12-28T01:31:12.936Z,0.80
2022-12-28T01:33:40.103Z,1.03
2022-12-28T01:36:08.660Z,1.20
2022-12-28T01:38:36.433Z,1.13
2022-12-28T01:41:03.299Z,0.80
2022-12-28T01:43:39.877Z,1.03
2022-12-28T01:46:06.873Z,1.10
2022-12-28T01:48:35.317Z,1.10
2022-12-28T01:51:02.079Z,1.20
2022-12-28T01:53:28.829Z,0.77
2022-12-28T01:55:55.592Z,1.20
2022-12-28T01:58:26.340Z,0.60
2022-12-28T02:00:53.169Z,1.77
2022-12-28T02:03:26.643Z,1.30
2022-12-28T02:05:57.036Z,1.30
2022-12-28T02:08:30.238Z,1.10
2022-12-28T02:10:57.422Z,0.90
2022-12-28T02:13:24.839Z,1.23
2022-12-28T02:15:51.600Z,1.83
2022-12-28T02:18:19.675Z,1.00
2022-12-28T02:21:08.254Z,1.50
2022-12-28T02:23:57.366Z,1.20
2022-12-28T02:26:44.021Z,1.00
2022-12-28T02:29:53.618Z,2.00
2022-12-28T02:32:28.177Z,1.03
2022-12-28T02:35:08.833Z,1.43
2022-12-28T02:37:49.792Z,0.70
2022-12-28T02:40:26.920Z,0.80
2022-12-28T02:42:54.619Z,1.00
2022-12-28T02:45:49.888Z,0.93
2022-12-28T02:48:35.409Z,1.60
2022-12-28T02:51:14.006Z,1.50
2022-12-28T02:53:48.924Z,1.13
2022-12-28T02:56:52.991Z,1.37
2022-12-28T02:59:56.806Z,1.97
2022-12-28T03:02:34.414Z,2.80
2022-12-28T03:05:19.513Z,3.37
2022-12-28T03:08:20.201Z,3.73
2022-12-28T03:10:50.408Z,3.60
2022-12-28T03:13:41.097Z,4.20
2022-12-28T03:16:12.643Z,3.30
2022-12-28T03:18:59.510Z,4.43
2022-12-28T03:21:46.446Z,4.03
2022-12-28T03:24:33.604Z,5.00
2022-12-28T03:27:21.548Z,5.80
2022-12-28T03:30:17.138Z,4.67
2022-12-28T03:32:44.615Z,6.47
2022-12-28T03:35:11.408Z,5.50
2022-12-28T03:37:51.989Z,6.80
2022-12-28T03:40:48.694Z,6.67
2022-12-28T03:43:40.227Z,5.43
2022-12-28T03:46:31.248Z,5.63
2022-12-28T03:49:01.858Z,5.13
2022-12-28T03:51:30.512Z,5.67
2022-12-28T03:53:57.280Z,7.53
2022-12-28T03:56:27.083Z,5.10
2022-12-28T03:58:54.435Z,6.43
2022-12-28T04:01:21.764Z,6.53
2022-12-28T04:03:48.749Z,7.50
2022-12-28T04:06:17.569Z,10.53
2022-12-28T04:08:45.209Z,6.07
2022-12-28T04:11:12.360Z,7.00
2022-12-28T04:13:39.109Z,9.83
2022-12-28T04:16:10.947Z,4.77
2022-12-28T04:18:37.785Z,5.70
2022-12-28T04:21:04.764Z,5.67
2022-12-28T04:23:32.274Z,6.53
2022-12-28T04:26:02.967Z,6.10
2022-12-28T04:28:30.913Z,6.90
2022-12-28T04:30:58.870Z,5.73
2022-12-28T04:33:26.086Z,3.60
2022-12-28T04:35:53.298Z,5.83
2022-12-28T04:38:21.278Z,5.30
2022-12-28T04:40:47.961Z,3.50
2022-12-28T04:43:14.783Z,3.93
2022-12-28T04:45:41.455Z,4.00
2022-12-28T04:48:08.178Z,4.13
2022-12-28T04:50:37.968Z,4.93
2022-12-28T04:53:04.669Z,4.00
2022-12-28T04:55:33.552Z,5.13
2022-12-28T04:58:00.923Z,3.50
2022-12-28T05:00:27.770Z,4.57
2022-12-28T05:02:54.673Z,3.53
2022-12-28T05:05:21.499Z,3.00
2022-12-28T05:07:48.218Z,3.70
2022-12-28T05:10:14.959Z,4.53
2022-12-28T05:12:41.672Z,3.80
2022-12-28T05:15:08.850Z,2.97
2022-12-28T05:17:35.625Z,3.97
2022-12-28T05:20:03.064Z,3.33
2022-12-28T05:22:29.745Z,3.60
2022-12-28T05:24:56.417Z,2.80
2022-12-28T05:27:23.053Z,2.40
2022-12-28T05:29:49.689Z,3.57
2022-12-28T05:32:16.521Z,2.67
2022-12-28T05:34:43.163Z,3.97
2022-12-28T05:37:09.839Z,3.57
2022-12-28T05:39:36.573Z,2.50
2022-12-28T05:42:03.488Z,3.70
2022-12-28T05:44:30.879Z,4.47
2022-12-28T05:46:57.764Z,4.33
2022-12-28T05:49:24.436Z,3.97
2022-12-28T05:51:54.596Z,3.93
2022-12-28T05:54:21.213Z,4.03
2022-12-28T05:56:51.693Z,3.93
2022-12-28T05:59:18.314Z,3.40
2022-12-28T06:01:45.676Z,4.67
2022-12-28T06:04:16.469Z,6.53
2022-12-28T06:06:43.595Z,5.33
2022-12-28T06:09:10.195Z,4.40
2022-12-28T06:11:37.012Z,4.33
2022-12-28T06:14:06.068Z,4.87
2022-12-28T06:16:35.525Z,5.80
2022-12-28T06:19:10.242Z,7.67
2022-12-28T06:21:39.641Z,5.20
2022-12-28T06:24:07.510Z,6.40
2022-12-28T06:26:35.954Z,5.47
2022-12-28T06:29:02.883Z,5.40
2022-12-28T06:31:32.660Z,4.87
2022-12-28T06:34:00.617Z,4.33
2022-12-28T06:36:29.707Z,5.20
2022-12-28T06:38:57.869Z,3.60
2022-12-28T06:41:25.399Z,3.60
2022-12-28T06:43:52.767Z,5.10
2022-12-28T06:46:20.900Z,7.10
2022-12-28T06:48:47.789Z,6.00
2022-12-28T06:51:16.658Z,7.63
2022-12-28T06:53:43.758Z,8.70
2022-12-28T06:56:16.459Z,9.07
2022-12-28T06:58:44.273Z,7.70
2022-12-28T07:01:15.324Z,7.90
2022-12-28T07:03:43.207Z,5.80
2022-12-28T07:06:10.604Z,5.77
2022-12-28T07:08:37.446Z,6.60
2022-12-28T07:11:06.275Z,6.33
2022-12-28T07:13:33.594Z,5.50
2022-12-28T07:16:05.136Z,5.80
2022-12-28T07:18:32.866Z,5.67
2022-12-28T07:21:07.619Z,6.07
2022-12-28T07:23:34.776Z,5.57
2022-12-28T07:26:09.775Z,5.57
2022-12-28T07:28:38.778Z,6.33
2022-12-28T07:31:11.467Z,6.03
2022-12-28T07:33:39.085Z,6.43
2022-12-28T07:36:07.713Z,7.47
2022-12-28T07:38:34.981Z,7.23
2022-12-28T07:41:03.405Z,6.27
2022-12-28T07:43:30.693Z,6.73
2022-12-28T07:46:04.920Z,5.73
2022-12-28T07:48:32.549Z,5.10
2022-12-28T07:51:10.556Z,6.60
2022-12-28T07:53:38.333Z,6.70
2022-12-28T07:56:05.468Z,5.77
2022-12-28T07:58:32.537Z,5.30
2022-12-28T08:01:12.868Z,6.67
2022-12-28T08:03:41.627Z,6.80
2022-12-28T08:06:18.936Z,7.83
2022-12-28T08:08:47.805Z,6.73
2022-12-28T08:11:17.163Z,7.60
2022-12-28T08:13:46.230Z,8.53
2022-12-28T08:16:14.783Z,7.10
2022-12-28T08:18:42.372Z,6.53
2022-12-28T08:21:12.612Z,6.70
2022-12-28T08:23:39.523Z,6.03
2022-12-28T08:26:08.195Z,6.40
2022-12-28T08:28:35.464Z,6.33
2022-12-28T08:31:10.742Z,5.80
2022-12-28T08:33:37.791Z,5.70
2022-12-28T08:36:05.993Z,10.63
2022-12-28T08:38:33.457Z,9.30
2022-12-28T08:41:01.660Z,8.80
2022-12-28T08:43:29.637Z,7.50
2022-12-28T08:46:00.757Z,9.83
2022-12-28T08:48:28.433Z,11.17
2022-12-28T08:50:55.623Z,12.43
2022-12-28T08:53:24.505Z,9.03
2022-12-28T08:55:51.742Z,10.20
2022-12-28T08:58:18.989Z,8.83
2022-12-28T09:00:45.867Z,9.53
2022-12-28T09:03:12.777Z,9.40
2022-12-28T09:05:40.072Z,6.70
2022-12-28T09:08:07.105Z,4.57
2022-12-28T09:10:33.898Z,5.57
2022-12-28T09:13:00.639Z,5.40
2022-12-28T09:15:27.367Z,7.43
2022-12-28T09:17:54.203Z,6.33
2022-12-28T09:20:20.920Z,7.30
2022-12-28T09:22:47.692Z,7.43
2022-12-28T09:25:14.452Z,9.67
2022-12-28T09:27:41.406Z,9.10
2022-12-28T09:30:08.874Z,9.40
2022-12-28T09:32:35.635Z,8.07
2022-12-28T09:35:02.400Z,8.23
2022-12-28T09:37:29.108Z,8.77
2022-12-28T09:40:01.158Z,6.70
2022-12-28T09:42:29.474Z,8.80
2022-12-28T09:45:11.065Z,9.83
2022-12-28T09:47:46.003Z,10.33
2022-12-28T09:50:30.172Z,6.70
2022-12-28T09:53:06.001Z,6.80
2022-12-28T09:55:40.318Z,8.30
2022-12-28T09:58:15.157Z,8.53
2022-12-28T10:00:45.536Z,9.23
2022-12-28T10:03:19.288Z,7.17
2022-12-28T10:05:46.351Z,9.20
2022-12-28T10:08:16.225Z,7.70
2022-12-28T10:10:48.447Z,7.77
2022-12-28T10:13:52.877Z,9.73
2022-12-28T10:16:06.987Z,9.70
2022-12-28T10:18:39.375Z,12.37
2022-12-28T10:21:06.633Z,15.93
2022-12-28T10:23:38.309Z,9.47
2022-12-28T10:26:16.052Z,17.50
2022-12-28T10:28:54.434Z,19.73
2022-12-28T10:31:38.691Z,9.90
2022-12-28T10:34:17.694Z,8.47
2022-12-28T10:36:44.807Z,7.57
2022-12-28T10:39:24.039Z,7.83
2022-12-28T10:41:51.831Z,5.80
2022-12-28T10:44:40.842Z,4.77
2022-12-28T10:47:43.624Z,6.70
2022-12-28T10:50:49.984Z,5.03
2022-12-28T10:53:31.386Z,5.70
2022-12-28T10:56:14.548Z,5.07
2022-12-28T10:58:43.883Z,6.40
2022-12-28T11:01:13.744Z,6.13
2022-12-28T11:03:59.895Z,8.40
2022-12-28T11:06:31.629Z,7.00
2022-12-28T11:09:15.527Z,8.77
2022-12-28T11:11:43.952Z,8.30
2022-12-28T11:14:33.265Z,7.73
2022-12-28T11:17:20.186Z,8.50
2022-12-28T11:19:52.263Z,7.73
2022-12-28T11:22:28.553Z,5.60
2022-12-28T11:24:56.408Z,5.67
2022-12-28T11:27:23.949Z,5.40
2022-12-28T11:29:52.959Z,5.90
2022-12-28T11:32:43.585Z,5.80
2022-12-28T11:35:20.642Z,5.83
2022-12-28T11:37:57.073Z,6.53
2022-12-28T11:40:46.393Z,6.47
2022-12-28T11:43:31.200Z,6.63
2022-12-28T11:45:59.647Z,6.37
2022-12-28T11:48:38.692Z,5.43
2022-12-28T11:51:06.356Z,4.13
2022-12-28T11:53:33.587Z,4.90
2022-12-28T11:56:04.754Z,4.57
2022-12-28T11:58:31.476Z,5.50
2022-12-28T12:01:00.271Z,6.87
2022-12-28T12:03:58.079Z,6.03
2022-12-28T12:07:03.056Z,4.50
2022-12-28T12:09:33.898Z,5.40
2022-12-28T12:12:03.906Z,4.80
2022-12-28T12:14:35.954Z,4.63
2022-12-28T12:17:05.925Z,6.13
2022-12-28T12:19:36.143Z,6.40
2022-12-28T12:22:23.084Z,4.90
2022-12-28T12:25:07.576Z,7.43
2022-12-28T12:27:40.327Z,6.60
2022-12-28T12:30:14.656Z,4.13
2022-12-28T12:32:46.972Z,4.27
2022-12-28T12:35:20.649Z,5.07
2022-12-28T12:37:54.987Z,4.60
2022-12-28T12:40:50.876Z,6.87
2022-12-28T12:43:32.357Z,5.13
2022-12-28T12:46:05.054Z,6.50
2022-12-28T12:48:58.249Z,5.10
2022-12-28T12:51:36.255Z,4.97
2022-12-28T12:54:05.867Z,6.00
2022-12-28T12:57:14.539Z,5.17
2022-12-28T12:59:56.665Z,4.60
2022-12-28T13:02:35.674Z,4.90
2022-12-28T13:05:03.698Z,6.40
2022-12-28T13:07:30.893Z,6.90
2022-12-28T13:10:01.375Z,6.13
2022-12-28T13:12:28.226Z,7.00
2022-12-28T13:15:00.251Z,6.57
2022-12-28T13:17:27.945Z,4.80
2022-12-28T13:20:20.775Z,6.20
2022-12-28T13:22:49.172Z,5.13
2022-12-28T13:25:30.860Z,5.23
2022-12-28T13:27:59.416Z,5.43
2022-12-28T13:30:26.548Z,5.83
2022-12-28T13:33:00.887Z,8.67
2022-12-28T13:35:30.209Z,9.53
2022-12-28T13:38:10.153Z,7.63
2022-12-28T13:40:38.472Z,7.07
2022-12-28T13:43:26.700Z,7.80
2022-12-28T13:45:56.793Z,8.87
2022-12-28T13:48:23.842Z,8.33
2022-12-28T13:50:52.919Z,7.60
2022-12-28T13:53:22.928Z,9.53
2022-12-28T13:55:51.069Z,11.07
2022-12-28T13:58:22.671Z,10.57
2022-12-28T14:00:50.554Z,8.27
2022-12-28T14:03:18.537Z,9.30
2022-12-28T14:05:51.155Z,12.10
2022-12-28T14:08:18.378Z,13.20
2022-12-28T14:10:47.353Z,11.93
2022-12-28T14:13:14.683Z,9.70
2022-12-28T14:15:41.811Z,10.47
2022-12-28T14:18:08.862Z,10.40
2022-12-28T14:20:49.203Z,8.70
2022-12-28T14:23:43.035Z,8.47
2022-12-28T14:26:19.521Z,12.07
2022-12-28T14:28:51.541Z,11.33
2022-12-28T14:31:27.506Z,12.63
2022-12-28T14:34:01.415Z,10.80
2022-12-28T14:36:42.731Z,9.60
2022-12-28T14:39:24.870Z,9.40
2022-12-28T14:41:51.545Z,8.80
2022-12-28T14:44:25.976Z,10.10
2022-12-28T14:46:54.638Z,9.00
2022-12-28T14:49:31.947Z,11.43
2022-12-28T14:52:08.275Z,10.33
2022-12-28T14:54:55.677Z,14.17
2022-12-28T14:57:40.215Z,11.63
2022-12-28T15:00:25.931Z,12.00
2022-12-28T15:02:53.704Z,9.60
2022-12-28T15:05:43.861Z,9.00
2022-12-28T15:08:11.216Z,7.73
2022-12-28T15:10:50.466Z,31.37
2022-12-28T15:13:18.211Z,23.00
2022-12-28T15:15:44.985Z,10.37
2022-12-28T15:18:11.920Z,9.97
2022-12-28T15:20:39.328Z,8.70
2022-12-28T15:23:06.095Z,10.50
2022-12-28T15:25:34.715Z,9.07
2022-12-28T15:28:01.492Z,9.03
2022-12-28T15:30:29.412Z,7.37
2022-12-28T15:32:56.703Z,6.30
2022-12-28T15:35:23.529Z,7.63
2022-12-28T15:37:50.331Z,6.77
2022-12-28T15:40:17.196Z,4.30
2022-12-28T15:42:45.545Z,4.13
2022-12-28T15:45:13.274Z,6.10
2022-12-28T15:47:40.192Z,9.70
2022-12-28T15:50:07.314Z,15.93
2022-12-28T15:52:34.321Z,17.53
2022-12-28T15:55:01.119Z,13.80
2022-12-28T15:57:28.275Z,11.60
2022-12-28T15:59:55.680Z,14.87
2022-12-28T16:02:23.167Z,15.40
2022-12-28T16:04:50.147Z,11.97
2022-12-28T16:07:16.967Z,13.90
2022-12-28T16:09:43.730Z,14.00
2022-12-28T16:12:10.578Z,13.90
2022-12-28T16:14:37.361Z,15.90
2022-12-28T16:17:04.049Z,23.17
2022-12-28T16:19:30.815Z,19.97
2022-12-28T16:21:57.524Z,18.27
2022-12-28T16:24:24.301Z,15.80
2022-12-28T16:26:51.065Z,16.70
2022-12-28T16:29:17.954Z,27.73
2022-12-28T16:31:44.881Z,18.43
2022-12-28T16:34:17.113Z,17.70
2022-12-28T16:36:46.072Z,17.03
2022-12-28T16:39:14.768Z,14.27
2022-12-28T16:41:41.687Z,16.63
2022-12-28T16:44:17.188Z,18.10
2022-12-28T16:46:44.066Z,20.43
2022-12-28T16:49:11.476Z,20.00
2022-12-28T16:51:43.995Z,20.73
2022-12-28T16:54:18.359Z,24.13
2022-12-28T16:56:45.915Z,19.00
2022-12-28T16:59:20.727Z,17.17
2022-12-28T17:01:48.199Z,16.27
2022-12-28T17:04:15.307Z,13.30
2022-12-28T17:06:42.845Z,13.63
2022-12-28T17:09:09.705Z,16.40
2022-12-28T17:11:36.811Z,16.90
2022-12-28T17:14:10.336Z,16.57
2022-12-28T17:16:37.588Z,18.20
2022-12-28T17:19:05.195Z,15.60
2022-12-28T17:21:32.784Z,19.70
2022-12-28T17:24:00.764Z,19.30
2022-12-28T17:26:27.584Z,21.90
2022-12-28T17:28:54.539Z,19.50
2022-12-28T17:31:23.208Z,21.40
2022-12-28T17:33:57.748Z,18.23
2022-12-28T17:36:24.673Z,14.70
2022-12-28T17:38:51.431Z,12.20
2022-12-28T17:41:21.310Z,16.97
2022-12-28T17:43:50.613Z,16.87
2022-12-28T17:46:18.392Z,12.33
2022-12-28T17:48:45.239Z,16.60
2022-12-28T17:51:12.374Z,15.53
2022-12-28T17:53:40.929Z,15.30
2022-12-28T17:56:12.428Z,16.37
2022-12-28T17:58:39.561Z,17.00
2022-12-28T18:01:06.468Z,14.23
2022-12-28T18:03:34.522Z,12.47
2022-12-28T18:06:01.562Z,16.03
2022-12-28T18:08:28.832Z,14.63
2022-12-28T18:10:55.907Z,15.43
2022-12-28T18:13:23.364Z,18.30
2022-12-28T18:15:50.375Z,14.57
2022-12-28T18:18:17.867Z,15.73
2022-12-28T18:20:44.719Z,16.50
2022-12-28T18:23:11.625Z,14.30
2022-12-28T18:25:38.823Z,12.73
2022-12-28T18:28:05.647Z,12.03
2022-12-28T18:30:32.392Z,15.77
2022-12-28T18:32:59.214Z,14.57
2022-12-28T18:35:26.997Z,14.13
2022-12-28T18:37:53.848Z,14.37
2022-12-28T18:40:20.605Z,14.97
2022-12-28T18:42:47.379Z,26.43
2022-12-28T18:45:14.288Z,16.00
2022-12-28T18:47:41.007Z,13.07
2022-12-28T18:50:08.649Z,10.83
2022-12-28T18:52:36.270Z,11.00
2022-12-28T18:55:03.619Z,10.50
2022-12-28T18:57:30.582Z,12.77
2022-12-28T18:59:57.359Z,11.47
2022-12-28T19:02:24.249Z,14.27
2022-12-28T19:04:54.470Z,14.13
2022-12-28T19:07:21.295Z,11.00
2022-12-28T19:10:12.439Z,13.43
2022-12-28T19:12:41.318Z,13.57
2022-12-28T19:15:09.090Z,22.57
2022-12-28T19:17:35.816Z,14.40
2022-12-28T19:20:02.560Z,15.67
2022-12-28T19:22:30.074Z,14.40
2022-12-28T19:24:56.869Z,13.73
2022-12-28T19:27:23.598Z,13.87
2022-12-28T19:29:53.015Z,14.27
2022-12-28T19:32:19.617Z,13.70
2022-12-28T19:34:46.293Z,15.00
2022-12-28T19:37:12.927Z,14.57
2022-12-28T19:39:39.795Z,12.90
2022-12-28T19:42:06.524Z,12.67
2022-12-28T19:44:33.768Z,14.30
2022-12-28T19:47:00.859Z,14.50
2022-12-28T19:49:27.522Z,14.90
2022-12-28T19:51:56.304Z,13.23
2022-12-28T19:54:24.218Z,11.67
2022-12-28T19:56:51.175Z,11.20
2022-12-28T19:59:17.839Z,11.70
2022-12-28T20:01:44.828Z,11.97
2022-12-28T20:04:14.267Z,13.63
2022-12-28T20:06:44.554Z,14.80
2022-12-28T20:09:12.825Z,14.57
2022-12-28T20:11:41.053Z,15.20
2022-12-28T20:14:08.385Z,13.83
2022-12-28T20:16:36.123Z,12.93
2022-12-28T20:19:06.750Z,13.17
2022-12-28T20:21:34.191Z,9.97
2022-12-28T20:24:01.827Z,9.53
2022-12-28T20:26:29.781Z,8.30
2022-12-28T20:28:57.805Z,10.93
2022-12-28T20:31:24.966Z,11.90
2022-12-28T20:33:51.952Z,8.90
2022-12-28T20:36:22.178Z,12.87
2022-12-28T20:38:49.634Z,9.20
2022-12-28T20:41:40.802Z,8.60
2022-12-28T20:44:13.105Z,11.97
2022-12-28T20:46:40.398Z,12.10
2022-12-28T20:49:07.465Z,10.30
2022-12-28T20:51:35.298Z,12.20
2022-12-28T20:54:02.461Z,10.20
2022-12-28T20:56:30.245Z,9.20
2022-12-28T20:58:57.641Z,9.20
2022-12-28T21:01:24.506Z,9.73
2022-12-28T21:03:51.558Z,8.80
2022-12-28T21:06:18.287Z,9.47
2022-12-28T21:08:45.034Z,8.80
2022-12-28T21:11:11.828Z,10.37
2022-12-28T21:13:43.949Z,9.80
2022-12-28T21:16:11.859Z,11.50
2022-12-28T21:18:38.593Z,9.20
2022-12-28T21:21:05.913Z,10.43
2022-12-28T21:23:33.031Z,10.13
2022-12-28T21:26:01.301Z,8.90
2022-12-28T21:28:28.029Z,10.17
2022-12-28T21:30:56.054Z,12.40
2022-12-28T21:33:23.318Z,9.77
2022-12-28T21:36:00.957Z,9.20
2022-12-28T21:38:28.328Z,9.90
2022-12-28T21:41:04.688Z,13.10
2022-12-28T21:43:32.081Z,12.93
2022-12-28T21:46:02.613Z,11.83
2022-12-28T21:48:34.185Z,13.93
2022-12-28T21:51:35.229Z,11.73
2022-12-28T21:54:14.093Z,8.23
2022-12-28T21:56:42.717Z,7.13
2022-12-28T21:59:10.940Z,7.70
2022-12-28T22:01:56.840Z,7.60
2022-12-28T22:04:42.257Z,7.17
2022-12-28T22:07:10.950Z,8.97
2022-12-28T22:09:56.773Z,8.63
2022-12-28T22:12:37.521Z,8.03
2022-12-28T22:15:37.644Z,10.13
2022-12-28T22:18:08.590Z,8.57
2022-12-28T22:20:37.027Z,7.70
2022-12-28T22:23:04.813Z,10.27
2022-12-28T22:25:31.551Z,12.60
2022-12-28T22:27:58.669Z,12.90
2022-12-28T22:30:26.155Z,11.33
2022-12-28T22:32:52.973Z,14.00
2022-12-28T22:35:19.601Z,10.37
2022-12-28T22:37:46.233Z,10.73
2022-12-28T22:40:13.382Z,12.83
2022-12-28T22:42:43.808Z,11.23
2022-12-28T22:45:16.265Z,11.30
2022-12-28T22:47:43.544Z,10.40
2022-12-28T22:50:12.549Z,11.57
2022-12-28T22:52:39.532Z,9.50
2022-12-28T22:55:06.682Z,8.90
2022-12-28T22:57:33.999Z,10.00
2022-12-28T23:00:00.612Z,8.60
2022-12-28T23:02:30.238Z,8.63
2022-12-28T23:04:57.163Z,11.03
2022-12-28T23:07:23.801Z,15.17
2022-12-28T23:09:50.431Z,13.73
2022-12-28T23:12:17.028Z,14.23
2022-12-28T23:15:02.217Z,8.80
2022-12-28T23:17:30.119Z,8.80
2022-12-28T23:20:15.666Z,11.00
2022-12-28T23:23:00.510Z,9.30
2022-12-28T23:25:45.742Z,9.07
2022-12-28T23:28:14.589Z,11.90
2022-12-28T23:30:43.268Z,9.20
2022-12-28T23:33:09.906Z,9.97
2022-12-28T23:35:36.509Z,8.97
2022-12-28T23:38:03.225Z,8.10
2022-12-28T23:40:29.910Z,8.73
2022-12-28T23:42:56.571Z,9.00
2022-12-28T23:45:23.197Z,8.57
2022-12-28T23:47:52.669Z,8.37
2022-12-28T23:50:19.742Z,7.23
2022-12-28T23:52:46.479Z,11.13
2022-12-28T23:55:13.095Z,9.23
2022-12-28T23:57:39.739Z,8.43
